Timeline UpdatesTrip UpdatesNews PostsPvt PostsTravel TipsAdmin PostsConv PostsFollowed PostsChat RequestsBlog PostsPNR Posts

Disclaimer
Search
 
 
Thu Aug 21, 2014 13:44:21 ISTHomeTrainsΣChainsAtlasPNRForumGalleryNewsFAQTripsMembersLoginFeedback
No Recent News for this Train
Other Trains in the News **new
Latest...
Will be regulated on Fridays till the departure of 12688 Dehradun - Madurai Express from Platform No. 1 from 10.05.2014 to 23.06.2014
Fri May 09, 2014 (05:32AM)
⇐ Return Journey: Train# 18478

18477/Kalinga Utkal Express

Mar 27 2014 (3:30PM)
Change Departure Station:
Change Arrival Station:
Post a Train Travel TipPost a Train Travel Tip **new
Post a Comment/Question/Picture/VideoPost a Comment/Question/Picture/Video
Pantry/Catering
✓ Pantry Car Avbl
✓ Catering Avbl
RSA - Rake Sharing
Rake/Coach Composition
Coach Composition:ENG-SLR-GS-GS-A1-B2-B1-S12-S11-S10-PC-S9-S8-S7-S6-S5-S4-S3-S2-S1-GS-SLR. By DJ 132 Entry# 701081
Loco
PURI-NZM: TKD WAP-7 NZM-HW: LDH WDM-3A
News    PNR    Forum    Time-Table    Availability    Fare Chart    Map    Arr/Dep History    Trips    Gallery    ΣChains    X/O    Timeline    
Travel Time: 10h 25m    16 halts    Distance: 578 km    Avg Speed: 55 km/hr
Type: Mail/Express
Zone: ECoR/East Coast
Departs @ 20:55 (Avg 19m late)
Platform# 5
SMTWTFS
Puri/PURI 
Arrives @ 07:20 +1 night (Avg 20m late)
Platform# ???
SMTWTFS
Chakradharpur/CKP 

16 halts. 95 intermediate Stations between Puri and Chakradharpur

Show ALL intermediate Stations  Show Old Time-Table

#CodeStation NameX/OArrivesAvgDepartsAvgHaltPFDay#KmSpeedElevZoneAddress
1PURI»Puri (5)»  -20:55+19510.04912mECoRPuri, Odisha
2SILSakhi Gopal (3)  21:15+2321:16+231m--116.44810mECoRPuri, Odisha
3KURKhurda Road Junction (7)X  21:50+2121:55+225m--143.94525mECoRKhordha, Odisha
4BBSBhubaneswar (4)  22:20+2622:25+265m4162.86740mECoRBhubaneshwar, Odisha
5CTCCuttack Junction (5)  22:50+3622:55+365m1190.77728mECoRCuttack, Odisha
6JJKRJajpur Keonjhar Road (4)  23:51+3723:52+371m--1162.74036mECoRJajpur, Odisha
7BHCBhadrak (4)X  00:58+2001:00+222m--2206.48323mECoRBhadrak, Odisha
8SOROSoroX  01:21+2601:22+281m--2235.47214mSERSoro, Odisha
9BLSBalasore (4)X  01:50+2501:55+255m--2268.87019mSERBalasore, Odisha
10BTSBasta (3)X  02:19+3402:20+351m--2296.86916mSERBasta, Odisha
11JERJaleswar (4)X  02:37+3202:38+321m--2316.38313mSERJaleswar, Odisha
12HIJHijli (2)  03:25+2803:26+331m--2381.05048mSERdist - paschim medinipur, West Bengal
13CKUChakulia (4)  04:47+1504:48+181m--2448.880126mSERChakulia, Jharkhand
14GTSGhatsila (3)X  05:11+705:12+81m--2479.441103mSEREast Singhbhum, Jharkhand
15TATATatanagar Junction (5)  06:05+2206:10+245m32515.560164mSER91-657-2423026, Jharkhand
16SINISini Junction (3)X  06:37+2506:38+261m--2542.557182mSERNational Highway 33, Jharkhand
17RKSNRajkharsawan Junction (3)  06:54+2406:55+251m--2557.848189mSERSaraikela Kharswan District, Jharkhand
18CKP•Chakradharpur (3)•X  07:20+2007:30+2110m--2577.884235mSERChakradharpur (West Singhbhum), Jharkhand
19GOLGoilkera (2)  07:54+2707:55+281m--2611.655333mSERGoilkera, Jharkhand
20MOUManoharpur  08:25+2608:26+271m--2639.164228mSERManoharpur, Jharkhand
21BZRBisra  08:50+3008:51+311m--2664.8114224mSERSundargarh, Odisha
22BNDMBondamunda (2)  08:55+5208:56+501m--2672.321213mSERRourkela, Odisha
23ROURourkela Junction (5)X  09:15+3009:30+3015m12678.966198mSERRourkela, Odisha
24GPRaj Gangpur (3)  09:57+3209:58+331m12708.774237mSERRaj Ganpur, Odisha
25BMBBamra (3)  10:26+3510:27+361m--2743.335259mSERBamra PH : 06642-229268, Odisha
26JSGJharsuguda Junction (5)X  11:30+2111:40+2510m--2779.878236mSERJharsuguda, Odisha
27BRJNBrajrajnagarX  11:49+2811:50+301m--2791.559212mSECRBrajrajnagar, Odisha
28BPHBelpaharX  11:59+3112:00+371m--2800.485235mSECRBelpahar, Odisha
29RIGRaigarh (3)X  12:36+4512:41+455m22851.589220mSECRRaigarh, Chhattisgarh
30KHSKharsia  13:04+5313:05+541m--2885.471259mSECRNational Highway 200, Chhattisgarh
31SKTSakti (4)  13:18+5613:19+581m--2900.874237mSECRJanjgir-Champa, Chhattisgarh
32BUABaradwar  13:31+1:0113:32+1:031m--2915.755256mSECRJanjgir-Champa, Chhattisgarh
33CPHChampa Junction (3)  13:49+1:0513:54+1:045m22931.265264mSECRNational Highway 200 (07819-245767), Chhattisgarh
34NIANaila  14:04+1:0414:05+1:051m--2942.069273mSECRJanjgir, Chhattisgarh
35AKTAkaltara (4)X  14:18+1:0414:19+1:051m--2957.032284mSECRDist. Janjgir Champa, Chhattisgarh
36BSPBilaspur Junction (8)  15:10+4215:25+5115m22984.260271mSECRBilaspur, Chhattisgarh
37KGBKargi Road  15:57+5515:58+581m--21016.247327mSECRBilaspur, Chhattisgarh
38BIGBelgahna  16:18+5716:19+591m--21032.049327mSECRBilaspur, Chhattisgarh
39PNDPendra Road  17:25+1:0317:30+1:055m921085.861620mSECRBilaspur district, Chhattisgarh
40APRAnuppur Junction (3)X  18:20+1:1118:25+1:115m--21136.976487mSECRAnuppur, Madhya Pradesh
41AALAmlaiX  18:35+1:1118:36+1:121m--21149.652495mSECRAnuppur, Madhya Pradesh
42BUHBurharX  18:46+1:1018:47+1:121m--21158.331494mSECRBurhar, Madhya Pradesh
43SDLShahdolX  19:25+5819:30+575m--21177.864466mSECR, Madhya Pradesh
44BRSBirsinghpur  20:05+5720:06+581m--21215.248461mSECRPali, Madhya Pradesh
45NRZBNowrozabadX  20:15+5620:16+561m--21222.447458mSECRNational Highway 78, Madhya Pradesh
46UMRUmaria (3)  20:45+4520:50+445m221245.060469mSECRUmaria, Madhya Pradesh
47CHDChandia Road (1)X  21:09+4221:10+441m121264.023406mSECRNational Highway 78, Madhya Pradesh
48KMZKatni Murwara  22:55+1923:10+2715m--21303.870385mWCRMP 483504 ?, Madhya Pradesh
49DMODamoh (2)  00:43+3300:45+352m--31413.078365mWCRDamoh, Madhya Pradesh
50PHAPatharia  01:05+4001:07+402m--31439.161382mWCRState Highway 14, Madhya Pradesh
51SGOSaugor (2)X  01:57+4302:00+443m--31490.155519mWCRMP 470001Madhya pradesh, Madhya Pradesh
52KYEKhurai (5)XO  02:58+3603:00+372m--31542.916439mWCRKhurai, Madhya Pradesh
53MAKRMalkheri Junction (2)  04:05+1204:07+152m--31560.161421mWCRGuna, Madhya Pradesh
54LARLalitpur (3)X  05:09+2605:10+381m331623.2114373mNCRLalitpur, Uttar Pradesh
55TBTTalbahat (4)  05:31+2805:33+292m--31663.271314mNCRKhaniyadhana Station Rd, Madhya Pradesh
56BABBabina (3)X  05:54+3905:55+431m131688.138285mNCRBabina, Uttar Pradesh
57JHSJhansi Junction (7)  06:35+3606:43+418m431713.665259mNCRJhansi, Uttar Pradesh
58DAADatia (2)  07:06+3807:07+431m--31738.683264mNCRDatia, Madhya Pradesh
59DBADabra (3)X  07:29+5507:30+1:011m131769.039 NCRDabra(District-Gwalior), Madhya Pradesh
60GWLGwalior Junction (4)X  08:35+4408:40+465m231811.383214mNCRGwalior, Madhya Pradesh
61MRAMorena (3)  09:08+4809:09+501m231849.867176mNCRMorena, Madhya Pradesh
62DHODholpur Junction (3)X  09:33+3909:34+401m131876.744177mNCRDholpur, Rajasthan
63AGCAgra Cantt. (6)X  10:45+3110:53+348m331929.324174mNCRAgra, Uttar Pradesh
64RKMRaja Ki Mandi (4)  11:03+3611:04+371m131933.369170mNCRAgra, Uttar Pradesh
65MTJMathura Junction (10)X  11:47+4311:52+435m231983.069179mNCRMathura, Uttar Pradesh
66FDBFaridabad (4)X  13:30+2613:31+271m232096.137206mNRold Faridabad, Haryana
67NZMDelhi Hazrat Nizamuddin (7)XO14:05+4814:35+4530m132116.939209mNRNew Delhi 110013, Delhi NCT
68GZBGhaziabad Junction (6)  15:11+5415:13+552m132140.367217mNRGhaziabad, Uttar Pradesh
69MTCMeerut City Junction (6)  15:55+1:0216:00+1:025m132187.664229mNRMeerut, Uttar Pradesh
70MOZMuzaffarnagar (3)  16:52+1:0016:53+1:021m132243.218247mNRMuzaffarNagar, Uttar Pradesh
71DBDDeoband (2)X  18:11+2518:12+261m132267.234258mNRSaharanpur, Uttar Pradesh
72TPZTapri Junction (2)  19:01+1419:02+161m232294.955274mNRTapri -Saharanpur, Uttar Pradesh
73RKRoorkee (3)X  19:37+2019:38+221m332326.952264mNRRoorkee - 247667, Uttarakhand
74HWHaridwar Junction (9)  20:30+13-232371.6-294mNRHaridwar, Uttarakhand
Scroll to Top
Scroll to Bottom